Weather reports worldwide

Advertisment
Lauwersoog aws, Netherlands (6277): temperature & dewpoint: 30.07.2020 04:00:00 - 05.08.2020 04:00:00 (CEST)Lauwersoog aws, Netherlands (6277): temperature 5cm: 30.07.2020 04:00:00 - 05.08.2020 04:00:00 (CEST)Lauwersoog aws, Netherlands (6277): wind speed & gusts: 30.07.2020 04:00:00 - 05.08.2020 04:00:00 (CEST)Lauwersoog aws, Netherlands (6277): wind direction: 30.07.2020 04:00:00 - 05.08.2020 04:00:00 (CEST)Lauwersoog aws, Netherlands (6277): precipitation: 30.07.2020 04:00:00 - 05.08.2020 04:00:00 (CEST)
Date & Time tt [°C] td [°C] tt 5cm [°C] ff [km/h] ff [kn] fx [km/h] fx [kn] dd rr [mm]
05.08.2020 04:00:00 15,6 10,4 14,9 22 12 32 18 S 0,0
05.08.2020 03:00:00 15,4 10,1 14,8 22 12 32 18 S 0,0
05.08.2020 02:00:00 15,9 10,2 15,4 18 10 32 18 S 0,0
05.08.2020 01:00:00 16,7 10,2 16,1 22 12 32 18 S 0,0
05.08.2020 00:00:00 16,9 10,9 16,3 22 12 29 16 SSE 0,0
04.08.2020 23:00:00 17,0 10,7 16,3 18 10 25 14 SSE 0,0
04.08.2020 22:00:00 17,3 11,4 16,4 14 8 18 10 SSE 0,0
04.08.2020 21:00:00 17,9 11,7 17,1 14 8 18 10 SSW 0,0
04.08.2020 20:00:00 18,9 10,8 18,7 14 8 22 12 WSW 0,0
04.08.2020 19:00:00 19,0 10,2 18,9 14 8 18 10 SW 0,0
04.08.2020 18:00:00 19,5 9,8 21,0 14 8 22 12 NW 0,0
04.08.2020 17:00:00 19,3 9,9 21,8 14 8 25 14 NW 0,0
04.08.2020 16:00:00 18,7 10,7 21,4 18 10 22 12 NW 0,0
04.08.2020 15:00:00 18,6 10,3 21,4 14 8 18 10 NW 0,0
04.08.2020 14:00:00 18,1 10,4 20,7 14 8 18 10 NW 0,0
04.08.2020 13:00:00 18,0 9,4 20,2 14 8 22 12 NW 0,0
04.08.2020 12:00:00 17,7 9,7 19,6 18 10 22 12 WNW 0,0
04.08.2020 11:00:00 17,3 9,9 18,8 14 8 25 14 NW 0,0
04.08.2020 10:00:00 16,8 9,6 18,3 18 10 25 14 NW 0,0
04.08.2020 09:00:00 16,7 10,7 17,1 18 10 29 16 NW 0,0
04.08.2020 08:00:00 15,9 11,3 15,3 25 14 29 16 NNW 0,0
04.08.2020 07:00:00 15,7 11,5 14,4 18 10 29 16 NW 0,0
04.08.2020 06:00:00 14,5 12,6 14,0 14 8 18 10 WSW 0,0
04.08.2020 05:00:00 14,9 12,4 11,8 14 8 18 10 WSW 0,0
04.08.2020 04:00:00 14,9 11,1 11,4 14 8 14 8 NNW 0,0
04.08.2020 03:00:00 15,7 11,0 12,9 14 8 18 10 N 0,0
04.08.2020 02:00:00 15,8 10,9 14,1 14 8 18 10 N 0,0
04.08.2020 01:00:00 15,9 11,5 14,3 14 8 22 12 N 0,0
04.08.2020 00:00:00 16,2 11,9 14,7 18 10 22 12 N 0,0
03.08.2020 23:00:00 16,5 12,4 15,2 18 10 22 12 N 0,0
03.08.2020 22:00:00 16,8 12,7 15,4 14 8 22 12 N 0,0
03.08.2020 21:00:00 17,3 12,1 16,3 14 8 22 12 NNW 0,0
03.08.2020 20:00:00 18,1 12,7 18,2 18 10 25 14 NNW 0,0
03.08.2020 19:00:00 18,9 12,5 20,1 14 8 18 10 NW 0,0
03.08.2020 18:00:00 18,2 12,4 18,4 14 8 18 10 NW 0,0
03.08.2020 17:00:00 19,7 13,4 21,4 14 8 18 10 NW 0,0
03.08.2020 16:00:00 17,8 13,4 18,1 11 6 18 10 SW 0,0
03.08.2020 15:00:00 18,1 15,0 19,2 14 8 22 12 SSW 0,0
03.08.2020 14:00:00 17,0 15,3 18,2 14 8 18 10 SSW 0,2
03.08.2020 13:00:00 15,3 14,9 15,4 14 8 22 12 SW 3,6
03.08.2020 12:00:00 14,5 13,7 14,5 14 8 22 12 SW 3,4
03.08.2020 11:00:00 15,0 13,7 15,0 14 8 18 10 S 0,8
03.08.2020 10:00:00 16,2 12,8 15,8 14 8 29 16 NW 2,0
03.08.2020 09:00:00 18,6 15,0 18,8 14 8 18 10 SSW 0,0
03.08.2020 08:00:00 16,5 14,4 16,4 14 8 18 10 SSW 0,0
03.08.2020 07:00:00 14,3 13,7 13,9 14 8 18 10 S 0,0
03.08.2020 06:00:00 13,3 12,8 12,7 14 8 18 10 S 0,0
03.08.2020 05:00:00 13,4 12,8 12,5 14 8 18 10 S 0,0
03.08.2020 04:00:00 13,9 13,0 13,0 14 8 18 10 S 0,0
03.08.2020 03:00:00 14,9 13,2 13,6 14 8 18 10 WSW 0,0
03.08.2020 02:00:00 15,3 13,0 14,0 14 8 25 14 WSW 0,0
03.08.2020 01:00:00 16,1 12,9 15,1 18 10 29 16 W 0,0
03.08.2020 00:00:00 16,6 12,8 15,4 22 12 25 14 WNW 0,0
02.08.2020 23:00:00 16,8 12,8 15,8 22 12 29 16 W 0,0
02.08.2020 22:00:00 17,0 12,8 15,6 22 12 29 16 WNW 0,0
02.08.2020 21:00:00 17,3 12,7 16,2 18 10 29 16 W 0,0
02.08.2020 20:00:00 18,0 13,0 18,0 25 14 36 19 WNW 0,0
02.08.2020 19:00:00 18,4 13,1 18,9 29 16 36 19 WNW 0,0
02.08.2020 18:00:00 18,5 12,5 19,8 29 16 40 21 WNW 0,0
02.08.2020 17:00:00 18,7 12,6 20,2 32 18 43 23 WNW 0,0
02.08.2020 16:00:00 19,2 12,9 21,0 36 19 43 23 WNW 0,0
02.08.2020 15:00:00 18,9 13,4 19,4 32 18 43 23 WNW 0,0
02.08.2020 14:00:00 19,4 12,9 21,2 32 18 43 23 W 0,0
02.08.2020 13:00:00 19,8 12,9 21,3 32 18 40 21 WNW 0,0
02.08.2020 12:00:00 19,2 15,4 19,9 36 19 40 21 WNW 0,0
02.08.2020 11:00:00 18,7 17,0 18,6 25 14 32 18 W 0,9
02.08.2020 10:00:00 19,2 17,5 19,4 14 8 22 12 SSW 0,0
02.08.2020 09:00:00 18,2 17,3 18,3 14 8 18 10 SSW 0,0
02.08.2020 08:00:00 16,4 16,0 16,4 14 8 18 10 SSW 0,0
02.08.2020 07:00:00 15,4 15,3 15,0 14 8 18 10 S 0,0
02.08.2020 06:00:00 15,1 14,9 14,6 14 8 18 10 S 0,0
02.08.2020 05:00:00 15,9 15,5 15,1 14 8 18 10 SSW 0,0
02.08.2020 04:00:00 16,2 15,7 15,1 14 8 18 10 SSW 0,0
02.08.2020 03:00:00 16,2 15,7 15,3 14 8 18 10 SSW 0,0
02.08.2020 02:00:00 16,4 15,7 15,2 14 8 18 10 SSW 0,0
02.08.2020 01:00:00 16,4 15,6 15,4 14 8 18 10 SSW 0,0
02.08.2020 00:00:00 16,9 15,4 15,7 14 8 18 10 SSW 0,0
01.08.2020 23:00:00 17,7 15,6 16,5 14 8 22 12 SW 0,0
01.08.2020 22:00:00 18,0 15,6 16,8 14 8 22 12 W 0,0
01.08.2020 21:00:00 19,1 15,5 18,1 18 10 29 16 W 0,0
01.08.2020 20:00:00 20,5 15,6 20,5 22 12 32 18 W 0,0
01.08.2020 19:00:00 20,5 16,9 20,8 29 16 40 21 W 0,0
01.08.2020 18:00:00 21,4 18,2 21,7 18 10 29 16 W 0,0
01.08.2020 17:00:00 21,7 18,0 22,1 22 12 29 16 W 0,0
01.08.2020 16:00:00 22,0 17,4 22,5 18 10 29 16 W 0,0
01.08.2020 15:00:00 21,9 16,8 23,0 18 10 29 16 W 0,0
01.08.2020 14:00:00 21,9 17,2 23,6 25 14 32 18 W 0,0
01.08.2020 13:00:00 21,7 16,8 23,5 25 14 36 19 W 0,0
01.08.2020 12:00:00 22,1 18,4 24,0 29 16 40 21 W 0,0
01.08.2020 11:00:00 22,1 19,2 22,2 14 8 29 16 SW 0,0
01.08.2020 10:00:00 21,9 18,3 22,4 18 10 29 16 SW 0,0
01.08.2020 09:00:00 19,8 16,5 19,5 14 8 22 12 S 0,0
01.08.2020 08:00:00 18,9 15,9 18,4 18 10 29 16 SSE 0,0
01.08.2020 07:00:00 18,3 15,7 17,9 18 10 25 14 SE 0,0
01.08.2020 06:00:00 18,5 15,2 17,7 14 8 32 18 SSE 0,0
01.08.2020 05:00:00 19,2 14,8 18,4 25 14 40 21 SE 0,0
01.08.2020 04:00:00 19,8 15,0 18,9 25 14 40 21 ESE 0,0
01.08.2020 03:00:00 19,9 15,5 19,1 25 14 40 21 SE 0,0
01.08.2020 02:00:00 20,5 15,7 19,5 25 14 36 19 ESE 0,0
01.08.2020 01:00:00 20,2 16,3 19,1 18 10 29 16 ESE 0,0
01.08.2020 00:00:00 20,1 16,7 19,3 25 14 32 18 E 0,0
31.07.2020 23:00:00 21,0 16,8 20,2 25 14 32 18 E 0,0
31.07.2020 22:00:00 22,4 16,6 21,3 18 10 29 16 E 0,0
31.07.2020 21:00:00 24,0 17,0 22,9 18 10 25 14 E 0,0
31.07.2020 20:00:00 22,2 18,7 22,1 22 12 29 16 E 0,0
31.07.2020 19:00:00 22,7 18,7 23,1 25 14 32 18 E 0,0
31.07.2020 18:00:00 23,0 19,0 24,0 29 16 36 19 ENE 0,0
31.07.2020 17:00:00 23,1 18,3 24,4 32 18 40 21 ENE 0,0
31.07.2020 16:00:00 23,5 17,4 24,8 32 18 36 19 ENE 0,0
31.07.2020 15:00:00 27,0 15,4 28,3 14 8 25 14 E 0,0
31.07.2020 14:00:00 24,4 16,7 26,1 14 8 22 12 ENE 0,0
31.07.2020 13:00:00 24,9 13,6 26,1 14 8 22 12 E 0,0
31.07.2020 12:00:00 23,9 12,6 24,2 14 8 22 12 ENE 0,0
31.07.2020 11:00:00 23,3 13,0 25,2 14 8 18 10 ESE 0,0
31.07.2020 10:00:00 21,6 14,1 22,9 14 8 14 8 SSE 0,0
31.07.2020 09:00:00 19,7 13,2 20,7 14 8 14 8 SE 0,0
31.07.2020 08:00:00 16,8 13,2 16,0 11 6 14 8 SE 0,0
31.07.2020 07:00:00 15,5 12,9 14,3 11 6 18 10 E 0,0
31.07.2020 06:00:00 14,7 12,9 13,4 14 8 14 8 E 0,0
31.07.2020 05:00:00 14,8 12,8 13,8 11 6 14 8 E 0,0
31.07.2020 04:00:00 15,2 12,9 14,1 14 8 18 10 ESE 0,0
31.07.2020 03:00:00 15,9 13,0 14,9 14 8 18 10 ESE 0,0
31.07.2020 02:00:00 16,2 13,0 14,8 14 8 18 10 ESE 0,0
31.07.2020 01:00:00 16,5 13,6 15,4 14 8 18 10 E 0,0
31.07.2020 00:00:00 16,8 14,4 15,9 14 8 18 10 ESE 0,0
30.07.2020 23:00:00 17,1 14,4 15,8 14 8 18 10 E 0,0
30.07.2020 22:00:00 17,7 14,5 16,6 14 8 18 10 E 0,0
30.07.2020 21:00:00 18,2 14,9 17,5 14 8 18 10 ENE 0,0
30.07.2020 20:00:00 19,3 14,8 19,3 14 8 18 10 NNE 0,0
30.07.2020 19:00:00 20,1 14,8 21,0 11 6 14 8 NNE 0,0
30.07.2020 18:00:00 20,5 14,8 21,3 14 8 18 10 N 0,0
30.07.2020 17:00:00 20,2 13,8 22,4 14 8 18 10 NW 0,0
30.07.2020 16:00:00 20,7 13,1 23,2 14 8 22 12 NW 0,0
30.07.2020 15:00:00 20,5 12,8 22,9 14 8 22 12 WNW 0,0
30.07.2020 14:00:00 20,0 12,5 20,7 18 10 25 14 W 0,0
30.07.2020 13:00:00 21,2 12,9 22,8 14 8 22 12 SW 0,0
30.07.2020 12:00:00 20,3 12,6 21,1 14 8 25 14 WSW 0,0
30.07.2020 11:00:00 19,9 12,8 21,1 18 10 22 12 SSW 0,0
30.07.2020 10:00:00 18,4 12,7 19,3 14 8 22 12 SW 0,0
30.07.2020 09:00:00 16,6 13,4 17,2 14 8 22 12 SSW 0,0
30.07.2020 08:00:00 14,1 12,1 13,5 14 8 18 10 S 0,0
30.07.2020 07:00:00 12,6 11,5 11,5 14 8 22 12 S 0,0
30.07.2020 06:00:00 11,7 10,8 10,2 14 8 18 10 SSW 0,0
30.07.2020 05:00:00 12,0 10,6 10,6 14 8 18 10 SSW 0,0
30.07.2020 04:00:00 12,1 10,5 11,0 14 8 18 10 SSW 0,0

tt = temperature
td = dewpoint
tt 5cm = temperature 5cm
ff = wind speed
fx = gusts
dd = wind direction
rr = precipitation

Next stations